VSV733 UAAA-UACC
Flight info
| Callsign | VSV733 |
|---|---|
| Flight time | 1h 24m |
| Altitude | 38000 |
| Route | ETEDA1J ETEDA W333 KRG DCT BEDKA BEDKA1K |
| Aircraft | B752/M-SDE3FGHIM3RWXY/LB1 |
Departure
| Time | 2026-04-29 18:22 |
|---|---|
| Airport | Almaty International Airport (UAAA) |
Arrival
| Time | 2026-04-29 19:47 |
|---|---|
| Airport | Nursultan Nazarbayev International Airport (UACC) |
| Time | Latitude | Longitude | Altitude | Speed | Heading |
|---|---|---|---|---|---|
| 2026-04-29 17:54 | 43.34867 | 77.01782 | 2248 ft | 0 kts | 185° |
| 2026-04-29 18:13 | 43.34861 | 77.01781 | 2248 ft | 3 kts | 185° |
| 2026-04-29 18:13 | 43.34823 | 77.01787 | 2248 ft | 5 kts | 151° |
| 2026-04-29 18:13 | 43.34803 | 77.01846 | 2248 ft | 9 kts | 98° |
| 2026-04-29 18:14 | 43.34797 | 77.01968 | 2249 ft | 15 kts | 93° |
| 2026-04-29 18:14 | 43.34786 | 77.02113 | 2249 ft | 11 kts | 102° |
| 2026-04-29 18:14 | 43.34783 | 77.02230 | 2249 ft | 13 kts | 90° |
| 2026-04-29 18:14 | 43.34779 | 77.02354 | 2249 ft | 13 kts | 95° |
| 2026-04-29 18:15 | 43.34774 | 77.02394 | 2249 ft | 0 kts | 105° |
| 2026-04-29 18:15 | 43.34772 | 77.02412 | 2249 ft | 7 kts | 96° |
| 2026-04-29 18:15 | 43.34774 | 77.02548 | 2249 ft | 19 kts | 79° |
| 2026-04-29 18:16 | 43.34840 | 77.02737 | 2249 ft | 24 kts | 56° |
| 2026-04-29 18:16 | 43.34936 | 77.02930 | 2249 ft | 24 kts | 56° |
| 2026-04-29 18:16 | 43.35031 | 77.03124 | 2249 ft | 24 kts | 56° |
| 2026-04-29 18:16 | 43.35125 | 77.03312 | 2250 ft | 23 kts | 56° |
| 2026-04-29 18:17 | 43.35216 | 77.03495 | 2250 ft | 23 kts | 55° |
| 2026-04-29 18:17 | 43.35308 | 77.03678 | 2250 ft | 23 kts | 56° |
| 2026-04-29 18:17 | 43.35397 | 77.03859 | 2250 ft | 22 kts | 56° |
| 2026-04-29 18:17 | 43.35486 | 77.04036 | 2250 ft | 22 kts | 54° |
| 2026-04-29 18:18 | 43.35574 | 77.04210 | 2250 ft | 22 kts | 56° |
| 2026-04-29 18:18 | 43.35657 | 77.04385 | 2250 ft | 21 kts | 57° |
| 2026-04-29 18:18 | 43.35740 | 77.04559 | 2250 ft | 21 kts | 56° |
| 2026-04-29 18:18 | 43.35838 | 77.04755 | 2250 ft | 29 kts | 55° |
| 2026-04-29 18:19 | 43.35960 | 77.04997 | 2250 ft | 31 kts | 56° |
| 2026-04-29 18:19 | 43.36081 | 77.05241 | 2250 ft | 30 kts | 56° |
| 2026-04-29 18:19 | 43.36195 | 77.05476 | 2250 ft | 29 kts | 56° |
| 2026-04-29 18:19 | 43.36308 | 77.05702 | 2250 ft | 28 kts | 56° |
| 2026-04-29 18:20 | 43.36416 | 77.05920 | 2250 ft | 23 kts | 55° |
| 2026-04-29 18:20 | 43.36488 | 77.06066 | 2250 ft | 11 kts | 57° |
| 2026-04-29 18:20 | 43.36481 | 77.06152 | 2250 ft | 9 kts | 137° |
| 2026-04-29 18:20 | 43.36427 | 77.06197 | 2251 ft | 8 kts | 157° |
| 2026-04-29 18:21 | 43.36371 | 77.06196 | 2251 ft | 7 kts | 198° |
| 2026-04-29 18:21 | 43.36323 | 77.06165 | 2251 ft | 7 kts | 215° |
| 2026-04-29 18:21 | 43.36286 | 77.06110 | 2251 ft | 8 kts | 236° |
| 2026-04-29 18:21 | 43.36225 | 77.05986 | 2251 ft | 28 kts | 236° |
| 2026-04-29 18:22 | 43.35983 | 77.05499 | 2251 ft | 98 kts | 235° |
| 2026-04-29 18:22 | 43.35464 | 77.04452 | 2278 ft | 163 kts | 235° |
| 2026-04-29 18:22 | 43.34781 | 77.03033 | 2711 ft | 192 kts | 236° |
| 2026-04-29 18:22 | 43.34050 | 77.01547 | 3768 ft | 191 kts | 236° |
| 2026-04-29 18:23 | 43.33305 | 76.99921 | 4273 ft | 215 kts | 238° |
| 2026-04-29 18:23 | 43.32490 | 76.98079 | 4768 ft | 241 kts | 237° |
| 2026-04-29 18:23 | 43.31538 | 76.96072 | 5442 ft | 258 kts | 237° |
| 2026-04-29 18:23 | 43.30929 | 76.93809 | 6449 ft | 263 kts | 264° |
| 2026-04-29 18:24 | 43.31181 | 76.91329 | 7230 ft | 276 kts | 293° |
| 2026-04-29 18:24 | 43.32319 | 76.89146 | 7905 ft | 291 kts | 322° |
| 2026-04-29 18:24 | 43.34113 | 76.87918 | 8908 ft | 291 kts | 347° |
| 2026-04-29 18:24 | 43.36074 | 76.87369 | 9767 ft | 295 kts | 349° |
| 2026-04-29 18:25 | 43.38089 | 76.86753 | 10557 ft | 303 kts | 348° |
| 2026-04-29 18:25 | 43.40210 | 76.86067 | 10931 ft | 324 kts | 347° |
| 2026-04-29 18:25 | 43.42440 | 76.85326 | 11433 ft | 343 kts | 347° |
| 2026-04-29 18:25 | 43.44804 | 76.84525 | 12106 ft | 353 kts | 347° |
| 2026-04-29 18:26 | 43.47168 | 76.83721 | 13105 ft | 353 kts | 346° |
| 2026-04-29 18:26 | 43.49553 | 76.82907 | 13965 ft | 357 kts | 346° |
| 2026-04-29 18:26 | 43.51991 | 76.82072 | 14859 ft | 360 kts | 346° |
| 2026-04-29 18:26 | 43.54390 | 76.81248 | 15735 ft | 362 kts | 346° |
| 2026-04-29 18:27 | 43.56858 | 76.80402 | 16559 ft | 366 kts | 346° |
| 2026-04-29 18:27 | 43.59300 | 76.79560 | 17368 ft | 368 kts | 346° |
| 2026-04-29 18:27 | 43.61787 | 76.78703 | 18174 ft | 371 kts | 346° |
| 2026-04-29 18:27 | 43.64314 | 76.77833 | 18941 ft | 377 kts | 346° |
| 2026-04-29 18:28 | 43.66866 | 76.76954 | 19777 ft | 379 kts | 346° |
| 2026-04-29 18:28 | 43.69421 | 76.76070 | 20472 ft | 384 kts | 345° |
| 2026-04-29 18:28 | 43.72000 | 76.75179 | 21283 ft | 385 kts | 345° |
| 2026-04-29 18:28 | 43.74612 | 76.74275 | 21993 ft | 390 kts | 345° |
| 2026-04-29 18:29 | 43.77222 | 76.73374 | 22705 ft | 393 kts | 345° |
| 2026-04-29 18:29 | 43.79003 | 76.72756 | 23144 ft | 396 kts | 345° |
| 2026-04-29 18:29 | 43.82585 | 76.71513 | 24089 ft | 399 kts | 345° |
| 2026-04-29 18:29 | 43.85282 | 76.70576 | 24698 ft | 403 kts | 345° |
| 2026-04-29 18:30 | 43.87983 | 76.69637 | 25326 ft | 406 kts | 345° |
| 2026-04-29 18:30 | 43.90739 | 76.68677 | 25875 ft | 410 kts | 344° |
| 2026-04-29 18:30 | 43.93504 | 76.67715 | 26495 ft | 412 kts | 344° |
| 2026-04-29 18:30 | 43.96291 | 76.66743 | 26999 ft | 416 kts | 344° |
| 2026-04-29 18:31 | 43.99074 | 76.65772 | 27574 ft | 417 kts | 344° |
| 2026-04-29 18:31 | 44.01924 | 76.64777 | 28063 ft | 421 kts | 344° |
| 2026-04-29 18:31 | 44.04752 | 76.63789 | 28591 ft | 423 kts | 344° |
| 2026-04-29 18:31 | 44.07611 | 76.62788 | 29111 ft | 425 kts | 344° |
| 2026-04-29 18:32 | 44.10511 | 76.61772 | 29579 ft | 428 kts | 344° |
| 2026-04-29 18:32 | 44.16303 | 76.59741 | 30514 ft | 433 kts | 344° |
| 2026-04-29 18:32 | 44.19244 | 76.58707 | 30909 ft | 437 kts | 344° |
| 2026-04-29 18:33 | 44.22191 | 76.57671 | 31347 ft | 438 kts | 344° |
| 2026-04-29 18:33 | 44.25161 | 76.56625 | 31726 ft | 441 kts | 344° |
| 2026-04-29 18:33 | 44.28105 | 76.55589 | 32092 ft | 444 kts | 343° |
| 2026-04-29 18:33 | 44.31103 | 76.54531 | 32585 ft | 443 kts | 343° |
| 2026-04-29 18:34 | 44.34063 | 76.53353 | 33132 ft | 439 kts | 338° |
| 2026-04-29 18:34 | 44.35915 | 76.52331 | 33439 ft | 437 kts | 335° |
| 2026-04-29 18:34 | 44.39662 | 76.50169 | 34090 ft | 435 kts | 335° |
| 2026-04-29 18:34 | 44.42464 | 76.48550 | 34441 ft | 434 kts | 335° |
| 2026-04-29 18:35 | 44.45250 | 76.46931 | 34763 ft | 434 kts | 335° |
| 2026-04-29 18:35 | 44.48011 | 76.45322 | 35082 ft | 434 kts | 335° |
| 2026-04-29 18:35 | 44.50814 | 76.43684 | 35377 ft | 435 kts | 335° |
| 2026-04-29 18:35 | 44.53573 | 76.42069 | 35692 ft | 434 kts | 336° |
| 2026-04-29 18:36 | 44.56370 | 76.40429 | 35973 ft | 434 kts | 336° |
| 2026-04-29 18:36 | 44.59146 | 76.38799 | 36294 ft | 434 kts | 336° |
| 2026-04-29 18:36 | 44.61961 | 76.37144 | 36560 ft | 436 kts | 336° |
| 2026-04-29 18:36 | 44.64742 | 76.35507 | 36906 ft | 435 kts | 336° |
| 2026-04-29 18:37 | 44.67517 | 76.33872 | 37230 ft | 435 kts | 335° |
| 2026-04-29 18:37 | 44.70322 | 76.32217 | 37506 ft | 435 kts | 335° |
| 2026-04-29 18:37 | 44.73108 | 76.30572 | 37737 ft | 436 kts | 335° |
| 2026-04-29 18:37 | 44.75903 | 76.28920 | 37986 ft | 432 kts | 335° |
| 2026-04-29 18:38 | 44.81456 | 76.25633 | 37999 ft | 432 kts | 335° |
| 2026-04-29 18:38 | 44.87043 | 76.22317 | 37998 ft | 433 kts | 335° |
| 2026-04-29 18:39 | 44.92569 | 76.19031 | 37995 ft | 432 kts | 335° |
| 2026-04-29 18:39 | 44.98118 | 76.15726 | 38001 ft | 433 kts | 335° |
| 2026-04-29 18:40 | 45.03643 | 76.12427 | 38000 ft | 433 kts | 335° |
| 2026-04-29 18:40 | 45.09174 | 76.09117 | 37998 ft | 433 kts | 335° |
| 2026-04-29 18:41 | 45.20253 | 76.02467 | 38010 ft | 432 kts | 336° |
| 2026-04-29 18:42 | 45.25763 | 75.99149 | 38009 ft | 432 kts | 335° |
| 2026-04-29 18:42 | 45.31290 | 75.95814 | 38010 ft | 433 kts | 335° |
| 2026-04-29 18:43 | 45.36805 | 75.92479 | 38006 ft | 433 kts | 335° |
| 2026-04-29 18:43 | 45.42329 | 75.89132 | 38009 ft | 432 kts | 335° |
| 2026-04-29 18:44 | 45.47852 | 75.85777 | 38020 ft | 432 kts | 335° |
| 2026-04-29 18:44 | 45.53361 | 75.82425 | 38012 ft | 431 kts | 335° |
| 2026-04-29 18:45 | 45.58882 | 75.79057 | 38022 ft | 432 kts | 335° |
| 2026-04-29 18:45 | 45.64385 | 75.75694 | 38023 ft | 432 kts | 335° |
| 2026-04-29 18:46 | 45.69893 | 75.72321 | 38027 ft | 431 kts | 335° |
| 2026-04-29 18:46 | 45.75383 | 75.68951 | 38026 ft | 431 kts | 335° |
| 2026-04-29 18:47 | 45.80897 | 75.65562 | 38027 ft | 431 kts | 335° |
| 2026-04-29 18:47 | 45.86381 | 75.62183 | 38025 ft | 431 kts | 335° |
| 2026-04-29 18:48 | 45.91886 | 75.58784 | 38030 ft | 431 kts | 335° |
| 2026-04-29 18:48 | 45.97416 | 75.55362 | 38032 ft | 432 kts | 335° |
| 2026-04-29 18:49 | 46.02906 | 75.51959 | 38034 ft | 429 kts | 335° |
| 2026-04-29 18:49 | 46.08399 | 75.48545 | 38044 ft | 431 kts | 335° |
| 2026-04-29 18:50 | 46.13892 | 75.45124 | 38045 ft | 429 kts | 335° |
| 2026-04-29 18:50 | 46.19370 | 75.41705 | 38055 ft | 429 kts | 335° |
| 2026-04-29 18:51 | 46.24840 | 75.38296 | 38044 ft | 429 kts | 335° |
| 2026-04-29 18:51 | 46.30316 | 75.34895 | 38051 ft | 429 kts | 334° |
| 2026-04-29 18:52 | 46.35785 | 75.31488 | 38065 ft | 428 kts | 334° |
| 2026-04-29 18:52 | 46.41234 | 75.28088 | 38071 ft | 428 kts | 334° |
| 2026-04-29 18:53 | 46.46684 | 75.24679 | 38071 ft | 428 kts | 335° |
| 2026-04-29 18:53 | 46.52147 | 75.21253 | 38068 ft | 429 kts | 335° |
| 2026-04-29 18:54 | 46.57575 | 75.17844 | 38084 ft | 428 kts | 334° |
| 2026-04-29 18:54 | 46.63048 | 75.14397 | 38079 ft | 427 kts | 334° |
| 2026-04-29 18:55 | 46.68451 | 75.10988 | 38082 ft | 426 kts | 334° |
| 2026-04-29 18:55 | 46.73911 | 75.07535 | 38085 ft | 427 kts | 334° |
| 2026-04-29 18:56 | 46.79332 | 75.04099 | 38088 ft | 427 kts | 334° |
| 2026-04-29 18:56 | 46.84766 | 75.00647 | 38090 ft | 426 kts | 334° |
| 2026-04-29 18:57 | 46.90223 | 74.97313 | 38099 ft | 428 kts | 337° |
| 2026-04-29 18:57 | 46.95784 | 74.94274 | 38109 ft | 426 kts | 337° |
| 2026-04-29 18:58 | 47.01341 | 74.91215 | 38114 ft | 428 kts | 337° |
| 2026-04-29 18:58 | 47.06899 | 74.88147 | 38105 ft | 429 kts | 337° |
| 2026-04-29 18:59 | 47.12482 | 74.85056 | 38119 ft | 428 kts | 337° |
| 2026-04-29 18:59 | 47.18029 | 74.81979 | 38122 ft | 428 kts | 336° |
| 2026-04-29 19:00 | 47.23566 | 74.78899 | 38128 ft | 427 kts | 336° |
| 2026-04-29 19:00 | 47.29104 | 74.75813 | 38128 ft | 426 kts | 337° |
| 2026-04-29 19:01 | 47.34639 | 74.72720 | 38138 ft | 427 kts | 336° |
| 2026-04-29 19:01 | 47.40185 | 74.69614 | 38137 ft | 427 kts | 336° |
| 2026-04-29 19:02 | 47.44794 | 74.67029 | 38137 ft | 427 kts | 336° |
| 2026-04-29 19:02 | 47.51274 | 74.63384 | 38149 ft | 427 kts | 336° |
| 2026-04-29 19:03 | 47.56775 | 74.60297 | 38142 ft | 426 kts | 336° |
| 2026-04-29 19:03 | 47.62311 | 74.57194 | 38144 ft | 426 kts | 336° |
| 2026-04-29 19:04 | 47.67845 | 74.54088 | 38151 ft | 427 kts | 336° |
| 2026-04-29 19:04 | 47.73397 | 74.50964 | 38154 ft | 427 kts | 336° |
| 2026-04-29 19:05 | 47.78947 | 74.47832 | 38145 ft | 427 kts | 336° |
| 2026-04-29 19:05 | 47.84496 | 74.44694 | 38156 ft | 427 kts | 336° |
| 2026-04-29 19:06 | 47.90015 | 74.41567 | 38148 ft | 426 kts | 336° |
| 2026-04-29 19:07 | 47.98339 | 74.36836 | 38155 ft | 427 kts | 336° |
| 2026-04-29 19:07 | 48.03860 | 74.33688 | 38162 ft | 428 kts | 335° |
| 2026-04-29 19:08 | 48.09392 | 74.30528 | 38174 ft | 427 kts | 335° |
| 2026-04-29 19:08 | 48.14969 | 74.27348 | 38176 ft | 426 kts | 335° |
| 2026-04-29 19:09 | 48.20492 | 74.24224 | 38179 ft | 426 kts | 335° |
| 2026-04-29 19:09 | 48.26014 | 74.21093 | 38189 ft | 427 kts | 335° |
| 2026-04-29 19:10 | 48.31583 | 74.17928 | 38191 ft | 428 kts | 335° |
| 2026-04-29 19:10 | 48.37145 | 74.14761 | 38187 ft | 428 kts | 335° |
| 2026-04-29 19:11 | 48.42687 | 74.11596 | 38188 ft | 429 kts | 335° |
| 2026-04-29 19:11 | 48.48233 | 74.08422 | 38186 ft | 428 kts | 335° |
| 2026-04-29 19:12 | 48.53813 | 74.05222 | 38190 ft | 428 kts | 335° |
| 2026-04-29 19:12 | 48.59359 | 74.02032 | 38192 ft | 428 kts | 335° |
| 2026-04-29 19:13 | 48.64882 | 73.98850 | 38185 ft | 429 kts | 335° |
| 2026-04-29 19:13 | 48.70455 | 73.95630 | 38176 ft | 429 kts | 335° |
| 2026-04-29 19:14 | 48.76029 | 73.92402 | 38187 ft | 431 kts | 335° |
| 2026-04-29 19:14 | 48.81636 | 73.89147 | 38178 ft | 429 kts | 335° |
| 2026-04-29 19:15 | 48.87168 | 73.85928 | 38182 ft | 427 kts | 335° |
| 2026-04-29 19:15 | 48.92736 | 73.82680 | 38181 ft | 430 kts | 335° |
| 2026-04-29 19:16 | 48.98293 | 73.79432 | 38186 ft | 429 kts | 335° |
| 2026-04-29 19:16 | 49.03829 | 73.76173 | 38182 ft | 431 kts | 335° |
| 2026-04-29 19:17 | 49.09447 | 73.72859 | 38181 ft | 432 kts | 335° |
| 2026-04-29 19:17 | 49.15042 | 73.69550 | 38174 ft | 430 kts | 335° |
| 2026-04-29 19:18 | 49.20644 | 73.66229 | 38168 ft | 431 kts | 335° |
| 2026-04-29 19:18 | 49.26241 | 73.62903 | 38175 ft | 432 kts | 335° |
| 2026-04-29 19:19 | 49.31828 | 73.59574 | 38164 ft | 431 kts | 335° |
| 2026-04-29 19:19 | 49.37443 | 73.56220 | 38162 ft | 433 kts | 335° |
| 2026-04-29 19:20 | 49.43035 | 73.52874 | 38159 ft | 433 kts | 335° |
| 2026-04-29 19:20 | 49.48620 | 73.49522 | 38149 ft | 432 kts | 335° |
| 2026-04-29 19:21 | 49.54192 | 73.46172 | 38097 ft | 418 kts | 335° |
| 2026-04-29 19:21 | 49.56835 | 73.44583 | 38104 ft | 400 kts | 335° |
| 2026-04-29 19:21 | 49.59420 | 73.43023 | 37920 ft | 398 kts | 335° |
| 2026-04-29 19:21 | 49.62001 | 73.41457 | 37349 ft | 406 kts | 335° |
| 2026-04-29 19:22 | 49.64636 | 73.39851 | 36677 ft | 409 kts | 333° |
| 2026-04-29 19:22 | 49.67135 | 73.37826 | 36073 ft | 402 kts | 323° |
| 2026-04-29 19:22 | 49.69308 | 73.35156 | 35570 ft | 395 kts | 313° |
| 2026-04-29 19:22 | 49.71108 | 73.32007 | 35133 ft | 390 kts | 306° |
| 2026-04-29 19:23 | 49.72777 | 73.28784 | 34684 ft | 391 kts | 306° |
| 2026-04-29 19:23 | 49.74465 | 73.25468 | 34188 ft | 394 kts | 305° |
| 2026-04-29 19:23 | 49.76151 | 73.22096 | 33642 ft | 397 kts | 305° |
| 2026-04-29 19:23 | 49.77813 | 73.18740 | 33103 ft | 401 kts | 305° |
| 2026-04-29 19:24 | 49.79516 | 73.15276 | 32549 ft | 405 kts | 304° |
| 2026-04-29 19:24 | 49.81221 | 73.11790 | 31997 ft | 408 kts | 305° |
| 2026-04-29 19:24 | 49.82910 | 73.08325 | 31450 ft | 410 kts | 305° |
| 2026-04-29 19:24 | 49.84642 | 73.04768 | 30905 ft | 414 kts | 305° |
| 2026-04-29 19:25 | 49.86351 | 73.01246 | 30346 ft | 416 kts | 305° |
| 2026-04-29 19:25 | 49.88090 | 72.97656 | 29789 ft | 414 kts | 305° |
| 2026-04-29 19:25 | 49.89811 | 72.94099 | 29215 ft | 410 kts | 305° |
| 2026-04-29 19:25 | 49.91491 | 72.90622 | 28661 ft | 405 kts | 305° |
| 2026-04-29 19:26 | 49.93166 | 72.87148 | 28115 ft | 401 kts | 305° |
| 2026-04-29 19:26 | 49.94813 | 72.83728 | 27591 ft | 399 kts | 305° |
| 2026-04-29 19:26 | 49.96478 | 72.80266 | 27064 ft | 397 kts | 305° |
| 2026-04-29 19:26 | 49.98107 | 72.76874 | 26554 ft | 395 kts | 305° |
| 2026-04-29 19:27 | 49.99745 | 72.73460 | 26034 ft | 392 kts | 305° |
| 2026-04-29 19:27 | 50.01365 | 72.70078 | 25525 ft | 389 kts | 305° |
| 2026-04-29 19:27 | 50.02965 | 72.66734 | 25028 ft | 387 kts | 305° |
| 2026-04-29 19:27 | 50.04563 | 72.63387 | 24528 ft | 386 kts | 305° |
| 2026-04-29 19:28 | 50.06158 | 72.60045 | 24029 ft | 384 kts | 305° |
| 2026-04-29 19:28 | 50.07721 | 72.56769 | 23540 ft | 381 kts | 305° |
| 2026-04-29 19:28 | 50.09296 | 72.53459 | 23060 ft | 379 kts | 305° |
| 2026-04-29 19:28 | 50.10860 | 72.50170 | 22572 ft | 377 kts | 305° |
| 2026-04-29 19:29 | 50.12420 | 72.46884 | 22087 ft | 375 kts | 305° |
| 2026-04-29 19:29 | 50.13962 | 72.43632 | 21612 ft | 373 kts | 305° |
| 2026-04-29 19:29 | 50.15481 | 72.40424 | 21143 ft | 371 kts | 305° |
| 2026-04-29 19:29 | 50.16998 | 72.37216 | 20676 ft | 369 kts | 305° |
| 2026-04-29 19:30 | 50.18535 | 72.33961 | 20201 ft | 367 kts | 304° |
| 2026-04-29 19:30 | 50.20026 | 72.30804 | 19737 ft | 365 kts | 304° |
| 2026-04-29 19:30 | 50.21540 | 72.27599 | 19272 ft | 363 kts | 304° |
| 2026-04-29 19:30 | 50.23038 | 72.24495 | 18779 ft | 363 kts | 306° |
| 2026-04-29 19:31 | 50.24562 | 72.21389 | 18302 ft | 359 kts | 305° |
| 2026-04-29 19:31 | 50.26072 | 72.18290 | 17825 ft | 357 kts | 306° |
| 2026-04-29 19:31 | 50.27576 | 72.15224 | 17360 ft | 355 kts | 305° |
| 2026-04-29 19:31 | 50.29066 | 72.12190 | 16900 ft | 354 kts | 306° |
| 2026-04-29 19:32 | 50.30565 | 72.09145 | 16440 ft | 351 kts | 305° |
| 2026-04-29 19:32 | 50.32041 | 72.06126 | 15981 ft | 350 kts | 305° |
| 2026-04-29 19:32 | 50.33508 | 72.03123 | 15531 ft | 348 kts | 305° |
| 2026-04-29 19:32 | 50.34967 | 72.00134 | 15086 ft | 346 kts | 305° |
| 2026-04-29 19:33 | 50.36414 | 71.97159 | 14634 ft | 345 kts | 305° |
| 2026-04-29 19:33 | 50.37861 | 71.94186 | 14192 ft | 343 kts | 305° |
| 2026-04-29 19:33 | 50.39296 | 71.91239 | 13745 ft | 342 kts | 305° |
| 2026-04-29 19:33 | 50.40738 | 71.88266 | 13304 ft | 340 kts | 304° |
| 2026-04-29 19:34 | 50.42159 | 71.85333 | 12867 ft | 339 kts | 305° |
| 2026-04-29 19:34 | 50.43569 | 71.82420 | 12428 ft | 337 kts | 304° |
| 2026-04-29 19:34 | 50.44980 | 71.79507 | 11992 ft | 335 kts | 304° |
| 2026-04-29 19:34 | 50.46378 | 71.76609 | 11576 ft | 333 kts | 304° |
| 2026-04-29 19:35 | 50.47777 | 71.73712 | 11166 ft | 331 kts | 304° |
| 2026-04-29 19:35 | 50.49158 | 71.70850 | 10757 ft | 331 kts | 304° |
| 2026-04-29 19:35 | 50.50536 | 71.67992 | 10305 ft | 329 kts | 304° |
| 2026-04-29 19:35 | 50.51868 | 71.65224 | 9881 ft | 309 kts | 304° |
| 2026-04-29 19:36 | 50.53115 | 71.62633 | 9479 ft | 292 kts | 304° |
| 2026-04-29 19:36 | 50.54307 | 71.60156 | 9434 ft | 273 kts | 303° |
| 2026-04-29 19:36 | 50.55430 | 71.57805 | 9380 ft | 276 kts | 304° |
| 2026-04-29 19:36 | 50.56611 | 71.55334 | 9271 ft | 284 kts | 304° |
| 2026-04-29 19:37 | 50.57806 | 71.52839 | 9114 ft | 282 kts | 304° |
| 2026-04-29 19:37 | 50.58577 | 71.51230 | 8971 ft | 282 kts | 304° |
| 2026-04-29 19:37 | 50.60143 | 71.47953 | 8649 ft | 280 kts | 304° |
| 2026-04-29 19:37 | 50.61318 | 71.45495 | 8417 ft | 278 kts | 304° |
| 2026-04-29 19:38 | 50.62477 | 71.43068 | 8096 ft | 280 kts | 304° |
| 2026-04-29 19:38 | 50.63635 | 71.40636 | 7744 ft | 276 kts | 304° |
| 2026-04-29 19:38 | 50.64782 | 71.38231 | 7348 ft | 274 kts | 304° |
| 2026-04-29 19:38 | 50.65913 | 71.35845 | 6977 ft | 271 kts | 304° |
| 2026-04-29 19:39 | 50.67072 | 71.33572 | 6626 ft | 270 kts | 314° |
| 2026-04-29 19:39 | 50.68655 | 71.31933 | 6317 ft | 273 kts | 329° |
| 2026-04-29 19:39 | 50.70334 | 71.30524 | 6000 ft | 273 kts | 329° |
| 2026-04-29 19:39 | 50.72002 | 71.29120 | 5664 ft | 271 kts | 330° |
| 2026-04-29 19:40 | 50.73661 | 71.27741 | 5324 ft | 268 kts | 330° |
| 2026-04-29 19:40 | 50.75291 | 71.26394 | 5029 ft | 265 kts | 331° |
| 2026-04-29 19:40 | 50.76919 | 71.25052 | 4744 ft | 264 kts | 332° |
| 2026-04-29 19:40 | 50.78552 | 71.23708 | 4399 ft | 264 kts | 332° |
| 2026-04-29 19:41 | 50.80157 | 71.22384 | 4022 ft | 261 kts | 332° |
| 2026-04-29 19:41 | 50.81725 | 71.21089 | 3992 ft | 247 kts | 333° |
| 2026-04-29 19:41 | 50.83306 | 71.20239 | 3963 ft | 231 kts | 359° |
| 2026-04-29 19:41 | 50.84792 | 71.20759 | 3942 ft | 215 kts | 31° |
| 2026-04-29 19:42 | 50.86029 | 71.21965 | 3938 ft | 203 kts | 32° |
| 2026-04-29 19:42 | 50.86429 | 71.22362 | 3935 ft | 199 kts | 32° |
| 2026-04-29 19:42 | 50.88080 | 71.24578 | 3876 ft | 177 kts | 46° |
| 2026-04-29 19:42 | 50.88937 | 71.25975 | 3827 ft | 178 kts | 45° |
| 2026-04-29 19:43 | 50.89830 | 71.27348 | 3804 ft | 182 kts | 44° |
| 2026-04-29 19:43 | 50.90744 | 71.28751 | 3782 ft | 181 kts | 44° |
| 2026-04-29 19:43 | 50.91641 | 71.30132 | 3754 ft | 183 kts | 45° |
| 2026-04-29 19:43 | 50.92564 | 71.31548 | 3550 ft | 179 kts | 45° |
| 2026-04-29 19:44 | 50.93421 | 71.32878 | 3294 ft | 166 kts | 44° |
| 2026-04-29 19:44 | 50.94194 | 71.34080 | 3105 ft | 149 kts | 45° |
| 2026-04-29 19:44 | 50.94899 | 71.35175 | 2881 ft | 138 kts | 45° |
| 2026-04-29 19:44 | 50.95598 | 71.36256 | 2717 ft | 142 kts | 45° |
| 2026-04-29 19:45 | 50.96300 | 71.37355 | 2531 ft | 144 kts | 45° |
| 2026-04-29 19:45 | 50.97015 | 71.38475 | 2330 ft | 143 kts | 45° |
| 2026-04-29 19:45 | 50.97727 | 71.39569 | 2145 ft | 142 kts | 44° |
| 2026-04-29 19:45 | 50.98463 | 71.40653 | 1973 ft | 142 kts | 44° |
| 2026-04-29 19:46 | 50.99154 | 71.41751 | 1712 ft | 142 kts | 46° |
| 2026-04-29 19:46 | 50.99838 | 71.42828 | 1574 ft | 138 kts | 46° |
| 2026-04-29 19:46 | 51.00529 | 71.43913 | 1396 ft | 139 kts | 45° |
| 2026-04-29 19:46 | 51.01216 | 71.44987 | 1207 ft | 137 kts | 45° |
| 2026-04-29 19:47 | 51.01863 | 71.46004 | 1177 ft | 114 kts | 44° |
| 2026-04-29 19:47 | 51.02256 | 71.46621 | 1177 ft | 60 kts | 44° |
| 2026-04-29 19:47 | 51.02438 | 71.46902 | 1177 ft | 16 kts | 44° |
| 2026-04-29 19:47 | 51.02515 | 71.46929 | 1177 ft | 8 kts | 335° |
| 2026-04-29 19:48 | 51.02557 | 71.46871 | 1177 ft | 7 kts | 309° |
| 2026-04-29 19:48 | 51.02581 | 71.46828 | 1177 ft | 8 kts | 312° |
| 2026-04-29 19:48 | 51.02637 | 71.46738 | 1177 ft | 8 kts | 313° |
| 2026-04-29 19:48 | 51.02683 | 71.46660 | 1177 ft | 10 kts | 313° |
| 2026-04-29 19:49 | 51.02695 | 71.46555 | 1177 ft | 10 kts | 241° |
| 2026-04-29 19:49 | 51.02649 | 71.46471 | 1177 ft | 9 kts | 231° |
| 2026-04-29 19:49 | 51.02626 | 71.46368 | 1177 ft | 10 kts | 259° |
| 2026-04-29 19:49 | 51.02599 | 71.46265 | 1177 ft | 10 kts | 231° |
| 2026-04-29 19:50 | 51.02549 | 71.46188 | 1177 ft | 9 kts | 223° |
| 2026-04-29 19:50 | 51.02502 | 71.46114 | 1177 ft | 9 kts | 225° |
| 2026-04-29 19:50 | 51.02492 | 71.46023 | 1177 ft | 8 kts | 296° |
| 2026-04-29 19:50 | 51.02508 | 71.45943 | 1177 ft | 6 kts | 255° |
| 2026-04-29 19:51 | 51.02477 | 71.45882 | 1177 ft | 5 kts | 224° |
| 2026-04-29 19:51 | 51.02470 | 71.45872 | 1177 ft | 0 kts | 224° |